Time;durP1;ratioP1;P1;durP2;ratioP2;P2;SDS_P1;SDS_P2;PMS_P1;PMS_P2;Temp;Humidity;BMP_temperature;BMP_pressure;BME280_temperature;BME280_humidity;BME280_pressure;Samples;Min_cycle;Max_cycle;Signal;HPM_P1;HPM_P2
2023/09/02 00:01:09;;;;;;;8.60;3.75;;;;;;;-145.68;100.00;73795.63;10491351;28;20187;-71
2023/09/02 00:06:09;;;;;;;6.25;3.28;;;;;;;-145.68;100.00;73803.63;10487475;28;20246;-71
2023/09/02 00:11:09;;;;;;;4.72;3.40;;;;;;;-145.68;100.00;73807.63;10491536;28;20218;-71
2023/09/02 00:16:10;;;;;;;6.00;3.70;;;;;;;-145.68;100.00;73819.63;10491206;28;20191;-70
2023/09/02 00:21:11;;;;;;;4.95;3.47;;;;;;;-145.68;100.00;73819.63;10491356;28;20191;-70
2023/09/02 00:26:12;;;;;;;6.07;3.70;;;;;;;-145.68;100.00;73821.63;10487720;28;20559;-70
2023/09/02 00:31:12;;;;;;;4.22;3.40;;;;;;;-145.68;100.00;73841.59;10480608;28;20215;-70
2023/09/02 00:36:14;;;;;;;3.78;3.03;;;;;;;-145.68;100.00;73839.59;10498492;28;20207;-70
2023/09/02 00:41:50;;;;;;;4.43;3.13;;;;;;;-145.68;100.00;73831.59;10478024;28;20198;-71
2023/09/02 00:46:51;;;;;;;6.10;2.90;;;;;;;-145.68;100.00;73823.63;10472867;28;20207;-70
2023/09/02 00:51:51;;;;;;;2.97;2.67;;;;;;;-145.68;100.00;73823.63;10497639;28;20650;-70
2023/09/02 00:56:52;;;;;;;4.93;2.60;;;;;;;-145.68;100.00;73831.59;10497778;28;20187;-69
2023/09/02 01:01:55;;;;;;;4.65;2.80;;;;;;;-145.68;100.00;73827.59;10492664;28;20238;-70
2023/09/02 01:06:56;;;;;;;4.72;3.00;;;;;;;-145.68;100.00;73821.63;10497299;28;20199;-70
2023/09/02 01:11:56;;;;;;;4.15;2.38;;;;;;;-145.68;100.00;73827.59;10496900;28;20353;-70
2023/09/02 01:16:57;;;;;;;3.42;2.65;;;;;;;-145.68;100.00;73835.59;10496809;28;20665;-70
2023/09/02 01:22:31;;;;;;;2.38;2.10;;;;;;;-145.68;100.00;73851.59;10492935;28;20199;-69
2023/09/02 01:27:38;;;;;;;2.40;2.20;;;;;;;-145.68;100.00;73859.59;10496276;28;20270;-70
2023/09/02 01:32:43;;;;;;;3.80;3.00;;;;;;;-145.68;100.00;73877.59;10496220;28;20211;-70
2023/09/02 01:37:45;;;;;;;4.70;2.38;;;;;;;-145.68;100.00;73883.59;10461067;28;20262;-70
2023/09/02 01:42:45;;;;;;;6.72;2.72;;;;;;;-145.68;100.00;73913.56;10477686;28;20203;-69
2023/09/02 01:47:47;;;;;;;5.65;3.10;;;;;;;-145.68;100.00;73943.56;10495358;28;20179;-70
2023/09/02 01:52:47;;;;;;;4.78;2.92;;;;;;;-145.68;100.00;73963.53;10461076;28;20329;-70
2023/09/02 01:57:48;;;;;;;2.78;2.45;;;;;;;-145.68;100.00;73963.53;10470602;28;20188;-69
2023/09/02 02:02:54;;;;;;;4.53;2.47;;;;;;;-145.68;100.00;73963.53;10472463;22;20328;-70
2023/09/02 02:07:58;;;;;;;2.65;2.20;;;;;;;-145.68;100.00;73971.53;10446263;28;20294;-71
2023/09/02 02:13:01;;;;;;;5.78;2.33;;;;;;;-145.68;100.00;73967.53;10452507;28;20278;-72
2023/09/02 02:18:02;;;;;;;5.90;2.83;;;;;;;-145.68;100.00;73975.53;10432080;28;20674;-71
2023/09/02 02:23:06;;;;;;;3.88;2.63;;;;;;;-145.68;100.00;73973.53;10434530;28;20702;-72
2023/09/02 02:28:07;;;;;;;5.30;2.70;;;;;;;-145.68;100.00;73983.53;10453226;28;20212;-71
2023/09/02 02:33:07;;;;;;;5.07;2.55;;;;;;;-145.68;100.00;73987.53;10452196;28;20274;-71
2023/09/02 02:38:07;;;;;;;4.68;3.33;;;;;;;-145.68;100.00;74003.53;10430421;28;20543;-71
2023/09/02 02:43:08;;;;;;;3.97;2.63;;;;;;;-145.68;100.00;73999.53;10434173;28;20215;-71
2023/09/02 02:48:15;;;;;;;3.25;2.40;;;;;;;-145.68;100.00;73989.53;10433649;28;20230;-71
2023/09/02 02:53:15;;;;;;;5.30;2.40;;;;;;;-145.68;100.00;73991.53;10450866;28;20298;-71
2023/09/02 02:58:16;;;;;;;4.07;2.55;;;;;;;-145.68;100.00;73989.53;10433922;28;20551;-71
2023/09/02 03:03:17;;;;;;;5.30;2.05;;;;;;;-145.68;100.00;73985.53;10433061;28;20258;-71
2023/09/02 03:08:17;;;;;;;2.22;2.03;;;;;;;-145.68;100.00;73985.53;10433372;28;20255;-71
2023/09/02 03:13:19;;;;;;;2.28;2.03;;;;;;;-145.68;100.00;73973.53;10430602;28;20204;-71
2023/09/02 03:18:21;;;;;;;4.63;2.92;;;;;;;-145.68;100.00;73981.53;10432285;28;20180;-71
2023/09/02 03:23:22;;;;;;;2.35;2.15;;;;;;;-145.68;100.00;73977.53;10416259;28;20697;-71
2023/09/02 03:28:23;;;;;;;2.47;2.20;;;;;;;-145.68;100.00;73975.53;10432664;28;20207;-71
2023/09/02 03:33:23;;;;;;;2.53;1.85;;;;;;;-145.68;100.00;73967.53;10432989;28;20211;-71
2023/09/02 03:38:24;;;;;;;4.00;2.10;;;;;;;-145.68;100.00;73971.53;10432398;28;20662;-71
2023/09/02 03:43:25;;;;;;;1.90;1.80;;;;;;;-145.68;100.00;73967.53;10450545;28;20270;-72
2023/09/02 03:48:27;;;;;;;2.47;2.22;;;;;;;-145.68;100.00;73973.53;10431648;28;20208;-70
2023/09/02 03:53:30;;;;;;;2.75;2.08;;;;;;;-145.68;100.00;73967.53;10432138;28;20231;-71
2023/09/02 03:58:31;;;;;;;2.95;2.08;;;;;;;-145.68;100.00;73965.53;10432120;28;20179;-71
2023/09/02 04:03:35;;;;;;;2.47;2.25;;;;;;;-145.68;100.00;73961.53;10436355;28;20231;-69
2023/09/02 04:08:36;;;;;;;2.80;2.10;;;;;;;-145.68;100.00;73965.53;10440315;28;20231;-70
2023/09/02 04:13:37;;;;;;;2.50;1.70;;;;;;;-145.68;100.00;73967.53;10453470;28;20204;-69
2023/09/02 04:18:41;;;;;;;6.32;2.10;;;;;;;-145.68;100.00;73975.53;10436921;28;20183;-70
2023/09/02 04:23:42;;;;;;;1.90;1.80;;;;;;;-145.68;100.00;73965.53;10439444;28;20210;-70
2023/09/02 04:28:45;;;;;;;3.85;1.70;;;;;;;-145.68;100.00;73979.53;10457156;28;20222;-70
2023/09/02 04:33:50;;;;;;;3.05;1.80;;;;;;;-145.68;100.00;73971.53;10457213;28;20208;-70
2023/09/02 04:38:53;;;;;;;2.65;1.80;;;;;;;-145.68;100.00;73971.53;10439030;28;20287;-70
2023/09/02 04:43:54;;;;;;;1.73;1.63;;;;;;;-145.68;100.00;73973.53;10442102;28;20203;-70
2023/09/02 04:48:55;;;;;;;4.28;1.70;;;;;;;-145.68;100.00;73971.53;10434667;28;20243;-70
2023/09/02 04:53:55;;;;;;;5.80;2.15;;;;;;;-145.68;100.00;73989.53;10438285;28;20208;-70
2023/09/02 04:58:56;;;;;;;4.50;1.75;;;;;;;-145.68;100.00;73979.53;10456261;28;20194;-69
2023/09/02 05:03:58;;;;;;;1.98;1.75;;;;;;;-145.68;100.00;73991.53;10437619;28;20277;-70
2023/09/02 05:08:58;;;;;;;2.50;1.83;;;;;;;-145.68;100.00;73983.53;10451550;28;20281;-69
2023/09/02 05:14:03;;;;;;;1.80;1.70;;;;;;;-145.68;100.00;73959.53;10454314;28;20208;-69
2023/09/02 05:19:07;;;;;;;1.63;1.52;;;;;;;-145.68;100.00;73941.56;10437512;28;20192;-69
2023/09/02 05:24:07;;;;;;;1.65;1.55;;;;;;;-145.68;100.00;73931.56;10437166;28;20254;-69
2023/09/02 05:29:08;;;;;;;2.30;1.63;;;;;;;-145.68;100.00;73931.56;10446756;28;20302;-69
2023/09/02 05:34:08;;;;;;;1.92;1.80;;;;;;;-145.68;100.00;73917.56;10454602;28;20649;-68
2023/09/02 05:39:10;;;;;;;3.50;2.15;;;;;;;-145.68;100.00;73929.56;10454521;28;20192;-69
2023/09/02 05:44:11;;;;;;;1.95;1.75;;;;;;;-145.68;100.00;73885.56;10454674;28;20721;-69
2023/09/02 05:49:14;;;;;;;30.73;19.92;;;;;;;-145.68;100.00;73877.59;10454362;28;20223;-68
2023/09/02 05:54:15;;;;;;;2.35;2.15;;;;;;;-145.68;100.00;73863.59;10453918;28;20340;-70
2023/09/02 05:59:15;;;;;;;2.20;2.00;;;;;;;-145.68;100.00;73863.59;10453764;28;20191;-69
2023/09/02 06:04:16;;;;;;;5.30;4.80;;;;;;;-145.68;100.00;73855.59;10452269;28;20246;-70
2023/09/02 06:09:16;;;;;;;1.83;1.70;;;;;;;-145.68;100.00;73831.59;10450230;28;20694;-70
2023/09/02 06:14:17;;;;;;;2.03;1.92;;;;;;;-145.68;100.00;73815.63;10453032;28;20693;-70
2023/09/02 06:19:17;;;;;;;2.33;1.98;;;;;;;-145.68;100.00;73779.63;10452888;28;20238;-70
2023/09/02 06:24:18;;;;;;;2.95;2.05;;;;;;;-145.68;100.00;73751.66;10452551;28;20227;-70
2023/09/02 06:29:19;;;;;;;2.25;2.05;;;;;;;-145.68;100.00;73721.66;10452494;28;20277;-71
2023/09/02 06:34:22;;;;;;;5.65;2.20;;;;;;;-145.68;100.00;73683.69;10451509;28;20200;-70
2023/09/02 06:39:22;;;;;;;5.68;3.30;;;;;;;-145.68;100.00;73657.69;10448782;28;20183;-71
2023/09/02 06:44:23;;;;;;;5.72;3.65;;;;;;;-145.68;100.00;73623.72;10448386;28;20219;-71
2023/09/02 06:49:23;;;;;;;4.70;3.17;;;;;;;-145.68;100.00;73577.75;10450798;28;20261;-70
2023/09/02 06:54:24;;;;;;;6.70;4.60;;;;;;;-145.68;100.00;73551.75;10450700;28;20215;-70
2023/09/02 06:59:25;;;;;;;7.18;5.93;;;;;;;-145.68;100.00;73543.78;10446322;28;20200;-69
2023/09/02 07:04:26;;;;;;;6.43;5.78;;;;;;;-145.68;100.00;73525.78;10447874;28;20385;-69
2023/09/02 07:09:26;;;;;;;6.68;5.97;;;;;;;-145.68;100.00;73509.78;10447144;28;20215;-69
2023/09/02 07:14:26;;;;;;;6.72;6.03;;;;;;;-145.68;100.00;73509.78;10446470;28;20222;-69
2023/09/02 07:19:27;;;;;;;5.88;5.18;;;;;;;-145.68;100.00;73527.78;10447207;28;20192;-70
2023/09/02 07:24:27;;;;;;;5.35;4.85;;;;;;;-145.68;100.00;73537.78;10447299;28;20216;-69
2023/09/02 07:29:28;;;;;;;5.35;4.82;;;;;;;-145.68;100.00;73539.78;10445395;28;20720;-70
2023/09/02 07:34:29;;;;;;;7.28;6.57;;;;;;;-145.68;100.00;73577.75;10442825;28;20333;-68
2023/09/02 07:39:29;;;;;;;7.97;6.40;;;;;;;-145.68;100.00;73561.75;10449198;28;20698;-68
2023/09/02 07:44:29;;;;;;;7.95;6.80;;;;;;;-145.68;100.00;73583.75;10457781;28;20203;-69
2023/09/02 07:49:30;;;;;;;9.38;8.48;;;;;;;-145.68;100.00;73575.75;10459832;28;20218;-69
2023/09/02 07:54:30;;;;;;;9.20;7.00;;;;;;;-145.68;100.00;73561.75;10458889;28;20218;-68
2023/09/02 07:59:31;;;;;;;6.45;5.63;;;;;;;-145.68;100.00;73515.78;10451054;28;20617;-69
2023/09/02 08:04:31;;;;;;;5.63;5.13;;;;;;;-145.68;100.00;73427.84;10479007;22;20249;-67
2023/09/02 08:09:31;;;;;;;8.43;7.65;;;;;;;-145.68;100.00;73451.81;10454897;28;20689;-66
2023/09/02 08:14:32;;;;;;;8.60;7.80;;;;;;;-145.68;100.00;73445.81;10458777;28;20231;-67
2023/09/02 08:19:32;;;;;;;6.00;5.47;;;;;;;-145.68;100.00;73387.88;10459708;28;20188;-67
2023/09/02 08:24:33;;;;;;;5.88;5.38;;;;;;;-145.68;100.00;73365.88;10460363;28;20771;-67
2023/09/02 08:29:33;;;;;;;4.40;4.00;;;;;;;-145.68;100.00;73307.91;10460442;28;20230;-68
2023/09/02 08:34:33;;;;;;;5.30;4.80;;;;;;;-145.68;94.95;73275.94;10460600;28;20627;-67
2023/09/02 08:39:34;;;;;;;4.88;4.38;;;;;;;-145.68;92.80;73281.94;10460050;28;20184;-67
2023/09/02 08:44:35;;;;;;;4.20;3.80;;;;;;;-145.68;83.43;73136.03;10474749;28;20216;-67
2023/09/02 08:49:36;;;;;;;3.92;2.92;;;;;;;-145.68;75.73;73048.09;10470049;28;20356;-66
2023/09/02 08:54:37;;;;;;;3.10;2.75;;;;;;;-145.68;70.07;73070.06;10466747;28;20367;-67
2023/09/02 08:59:38;;;;;;;2.90;2.70;;;;;;;-145.68;70.14;73048.09;10464406;28;20199;-67
2023/09/02 09:04:38;;;;;;;3.30;3.00;;;;;;;-145.68;71.84;73154.03;10459978;28;20238;-67
2023/09/02 09:09:39;;;;;;;2.97;2.78;;;;;;;-145.68;72.54;73120.03;10451752;28;20599;-68
2023/09/02 09:14:44;;;;;;;3.67;3.30;;;;;;;-145.68;74.70;73166.00;10433727;28;20285;-68
2023/09/02 09:19:44;;;;;;;3.58;3.28;;;;;;;-145.68;76.21;73219.97;10435429;28;20547;-69
2023/09/02 09:24:45;;;;;;;3.85;3.55;;;;;;;-145.68;78.65;73351.88;10465045;28;20215;-68
2023/09/02 09:29:45;;;;;;;3.40;3.10;;;;;;;-145.68;80.89;73335.91;10452414;28;20235;-68
2023/09/02 09:34:46;;;;;;;3.05;2.85;;;;;;;-145.68;77.70;73283.94;10444089;28;20352;-67
2023/09/02 09:39:51;;;;;;;2.33;2.22;;;;;;;-145.68;72.59;73160.00;10440361;28;20198;-68
2023/09/02 09:44:56;;;;;;;2.58;2.38;;;;;;;-145.68;69.30;73120.03;10442796;28;20215;-68
2023/09/02 09:50:17;;;;;;;2.97;2.40;;;;;;;-145.68;67.80;73114.03;10450662;28;20220;-68
2023/09/02 09:55:24;;;;;;;3.58;2.75;;;;;;;-145.68;68.59;73108.06;10449222;28;20307;-68
2023/09/02 10:00:25;;;;;;;2.42;2.22;;;;;;;-145.68;65.70;73010.13;10448178;28;20193;-67
2023/09/02 10:05:31;;;;;;;2.85;2.65;;;;;;;-145.68;64.38;72988.13;10459485;28;20601;-68
2023/09/02 10:10:36;;;;;;;3.30;3.00;;;;;;;-145.68;65.37;73000.13;10463249;28;20213;-67
2023/09/02 10:15:36;;;;;;;4.97;3.92;;;;;;;-145.68;65.31;73026.09;10464811;28;20219;-68
2023/09/02 10:20:38;;;;;;;5.00;4.50;;;;;;;-145.68;65.78;73056.09;10459634;28;20654;-68
2023/09/02 10:26:02;;;;;;;5.63;5.10;;;;;;;-145.68;65.12;73044.09;10451332;28;20239;-69
2023/09/02 10:31:06;;;;;;;5.10;4.70;;;;;;;-145.68;63.73;73044.09;10429572;28;20220;-69
2023/09/02 10:36:08;;;;;;;4.95;4.43;;;;;;;-145.68;62.50;73054.09;10450381;28;20220;-69
2023/09/02 10:41:13;;;;;;;4.63;4.22;;;;;;;-145.68;64.49;73158.00;10432519;28;20267;-68
2023/09/02 10:46:13;;;;;;;4.68;3.75;;;;;;;-145.68;65.74;73231.97;10450047;28;20216;-69
2023/09/02 10:51:15;;;;;;;3.65;3.35;;;;;;;-145.68;67.67;73148.03;10448280;28;20590;-68
2023/09/02 10:56:28;;;;;;;3.63;3.33;;;;;;;-145.68;62.54;73012.13;10432144;28;20215;-68
2023/09/02 11:01:48;;;;;;;3.85;3.55;;;;;;;-145.68;60.36;72962.16;10449353;28;20637;-68
2023/09/02 11:07:22;;;;;;;3.70;3.40;;;;;;;-145.68;59.59;73050.09;10448950;28;20235;-68
2023/09/02 11:12:22;;;;;;;2.80;2.60;;;;;;;-145.68;63.06;73136.03;10419296;28;20238;-69
2023/09/02 11:17:29;;;;;;;2.63;2.42;;;;;;;-145.68;58.41;73048.09;10447664;28;20302;-68
2023/09/02 11:22:52;;;;;;;2.85;2.53;;;;;;;-145.68;57.22;73060.09;10450732;28;20191;-69
2023/09/02 11:27:53;;;;;;;2.17;2.03;;;;;;;-145.68;55.92;72960.16;10450269;28;20644;-68
2023/09/02 11:32:54;;;;;;;1.50;1.40;;;;;;;-145.68;56.32;73006.13;10450385;28;20220;-68
2023/09/02 11:37:55;;;;;;;1.45;1.35;;;;;;;-145.68;56.68;73198.00;10450073;28;20204;-68
2023/09/02 11:43:02;;;;;;;1.40;1.30;;;;;;;-145.68;58.29;73076.06;10450065;28;20179;-68
2023/09/02 11:48:03;;;;;;;1.02;1.00;;;;;;;-145.68;57.53;73032.09;10431995;28;20251;-68
2023/09/02 11:53:04;;;;;;;1.17;1.15;;;;;;;-145.68;56.64;72960.16;10449541;28;20270;-68
2023/09/02 11:58:10;;;;;;;1.40;1.30;;;;;;;-145.68;52.47;72836.25;10449566;28;20203;-68
2023/09/02 12:03:12;;;;;;;1.55;1.45;;;;;;;-145.68;53.39;72844.25;10445875;28;20207;-68
2023/09/02 12:08:13;;;;;;;1.58;1.48;;;;;;;-145.68;53.29;72850.25;10449491;28;20211;-66
2023/09/02 12:13:14;;;;;;;1.20;1.10;;;;;;;-145.68;52.75;72790.28;10449285;28;20736;-68
2023/09/02 12:18:16;;;;;;;1.30;1.30;;;;;;;-145.68;49.46;72690.38;10449327;28;20192;-68
2023/09/02 12:23:16;;;;;;;1.38;1.27;;;;;;;-145.68;50.12;72692.38;10451533;28;20196;-68
2023/09/02 12:28:17;;;;;;;1.25;1.15;;;;;;;-145.68;46.54;72458.56;10438994;28;20641;-67
2023/09/02 12:33:17;;;;;;;1.23;1.15;;;;;;;-145.68;49.58;72684.38;10456623;28;20196;-68
2023/09/02 12:38:21;;;;;;;1.10;1.10;;;;;;;-145.68;46.32;72416.59;10456701;28;20610;-68
2023/09/02 12:43:27;;;;;;;1.25;1.08;;;;;;;-145.68;44.52;72428.59;10459949;28;20184;-68
2023/09/02 12:48:29;;;;;;;1.13;1.10;;;;;;;-145.68;44.61;72502.53;10459153;28;20286;-68
2023/09/02 12:53:29;;;;;;;1.73;1.45;;;;;;;-145.68;46.21;72502.53;10464417;28;20234;-67
2023/09/02 12:58:30;;;;;;;1.70;1.60;;;;;;;-145.68;49.88;72714.34;10463624;28;20176;-68
2023/09/02 13:03:30;;;;;;;4.90;2.78;;;;;;;-145.68;51.51;72796.28;10468187;28;20628;-68
2023/09/02 13:08:31;;;;;;;1.85;1.75;;;;;;;-145.68;54.65;72856.22;10465353;28;20297;-69
2023/09/02 13:13:31;;;;;;;1.50;1.40;;;;;;;-145.68;52.72;72780.28;10437182;28;20572;-69
2023/09/02 13:18:31;;;;;;;1.65;1.55;;;;;;;-145.68;51.99;72724.34;10465409;28;20184;-68
2023/09/02 13:23:32;;;;;;;2.35;1.88;;;;;;;-145.68;52.51;72734.31;10454541;28;20247;-68
2023/09/02 13:28:34;;;;;;;4.50;1.88;;;;;;;-145.68;53.27;72722.34;10459923;28;20214;-68
2023/09/02 13:33:39;;;;;;;1.92;1.50;;;;;;;-145.68;50.39;72658.38;10457937;28;20212;-68
2023/09/02 13:38:40;;;;;;;2.38;1.20;;;;;;;-145.68;50.81;72676.38;10454241;28;20192;-68
2023/09/02 13:43:40;;;;;;;2.15;1.98;;;;;;;-145.68;52.41;72756.31;10460499;28;20219;-67
2023/09/02 13:48:41;;;;;;;1.60;1.50;;;;;;;-145.68;53.44;72804.28;10453556;28;20582;-67
2023/09/02 13:53:41;;;;;;;2.78;2.22;;;;;;;-145.68;52.54;72748.31;10435873;28;20208;-68
2023/09/02 13:58:42;;;;;;;2.25;1.90;;;;;;;-145.68;52.99;72808.28;10453243;28;20192;-68
2023/09/02 14:03:42;;;;;;;2.38;2.17;;;;;;;-145.68;55.58;72858.22;10476199;22;20234;-69
2023/09/02 14:08:44;;;;;;;2.88;1.90;;;;;;;-145.68;57.69;72942.16;10410085;28;20232;-69
2023/09/02 14:13:44;;;;;;;1.70;1.60;;;;;;;-145.68;56.75;72904.19;10432242;28;20188;-69
2023/09/02 14:18:46;;;;;;;2.50;1.83;;;;;;;-145.68;53.55;72836.25;10435329;28;20216;-70
2023/09/02 14:23:46;;;;;;;2.17;2.00;;;;;;;-145.68;53.85;72860.22;10437530;28;20187;-70
2023/09/02 14:28:47;;;;;;;2.25;2.05;;;;;;;-145.68;54.43;72850.25;10435069;28;20576;-70
2023/09/02 14:33:47;;;;;;;2.00;1.80;;;;;;;-145.68;54.64;72842.25;10477623;28;20188;-69
2023/09/02 14:38:47;;;;;;;3.45;2.00;;;;;;;-145.68;52.65;72796.28;10478657;28;20258;-69
2023/09/02 14:43:50;;;;;;;1.80;1.70;;;;;;;-145.68;54.85;72922.19;10476429;28;20199;-70
2023/09/02 14:48:50;;;;;;;1.77;1.67;;;;;;;-145.68;56.17;72950.16;10475427;28;20215;-68
2023/09/02 14:53:51;;;;;;;2.70;2.10;;;;;;;-145.68;56.74;73040.09;10474718;28;20194;-68
2023/09/02 14:58:51;;;;;;;2.10;2.00;;;;;;;-145.68;57.65;72988.13;10475933;28;20183;-70
2023/09/02 15:03:51;;;;;;;2.05;1.95;;;;;;;-145.68;58.02;72942.16;10460922;28;20245;-70
2023/09/02 15:08:52;;;;;;;1.75;1.65;;;;;;;-145.68;55.18;72950.16;10499324;28;20214;-70
2023/09/02 15:13:52;;;;;;;2.00;1.70;;;;;;;-145.68;58.33;72984.13;10505320;28;20253;-69
2023/09/02 15:18:54;;;;;;;2.38;2.17;;;;;;;-145.68;58.91;73004.13;10522583;28;20923;-69
2023/09/02 15:23:54;;;;;;;2.55;2.35;;;;;;;-145.68;58.14;72968.16;10532291;28;20675;-69
2023/09/02 15:28:54;;;;;;;1.95;1.73;;;;;;;-145.68;58.25;72998.13;10564930;28;20201;-69
2023/09/02 15:33:56;;;;;;;1.45;1.35;;;;;;;-145.68;58.21;73006.13;10574454;28;20221;-68
2023/09/02 15:38:57;;;;;;;2.10;1.90;;;;;;;-145.68;58.42;73000.13;10574355;28;20189;-68
2023/09/02 15:43:58;;;;;;;1.60;1.38;;;;;;;-145.68;59.92;73022.13;10538799;28;20721;-68
2023/09/02 15:48:59;;;;;;;1.38;1.27;;;;;;;-145.68;59.32;73042.09;10524611;28;20221;-67
2023/09/02 15:53:59;;;;;;;1.88;1.77;;;;;;;-145.68;60.26;73078.06;10539092;28;20282;-68
2023/09/02 15:59:00;;;;;;;1.50;1.30;;;;;;;-145.68;60.28;73060.09;10525848;28;20182;-68
2023/09/02 16:04:01;;;;;;;1.80;1.70;;;;;;;-145.68;59.32;73038.09;10534249;28;21280;-68
2023/09/02 16:09:02;;;;;;;2.45;1.30;;;;;;;-145.68;57.81;73034.09;10540697;28;20222;-68
2023/09/02 16:14:02;;;;;;;2.63;2.10;;;;;;;-145.68;58.30;73058.09;10557928;28;20218;-67
2023/09/02 16:19:03;;;;;;;2.78;2.58;;;;;;;-145.68;59.52;73084.06;10581797;28;20190;-67
2023/09/02 16:24:03;;;;;;;3.08;2.78;;;;;;;-145.68;61.45;73096.06;10581041;28;20679;-68
2023/09/02 16:29:04;;;;;;;2.38;2.17;;;;;;;-145.68;62.80;73160.00;10581364;28;20259;-68
2023/09/02 16:34:04;;;;;;;2.05;1.60;;;;;;;-145.68;64.10;73211.97;10578674;28;20209;-68
2023/09/02 16:39:04;;;;;;;2.90;2.70;;;;;;;-145.68;64.19;73225.97;10581580;28;20186;-68
2023/09/02 16:44:06;;;;;;;2.33;1.48;;;;;;;-145.68;65.40;73253.94;10580656;28;20213;-68
2023/09/02 16:49:12;;;;;;;1.95;1.70;;;;;;;-145.68;66.26;73269.94;10580514;28;20218;-68
2023/09/02 16:54:13;;;;;;;1.10;1.10;;;;;;;-145.68;69.28;73301.91;10580266;28;20353;-68
2023/09/02 16:59:13;;;;;;;1.85;1.55;;;;;;;-145.68;70.85;73323.91;10580418;28;20309;-69
2023/09/02 17:04:14;;;;;;;2.03;1.52;;;;;;;-145.68;75.93;73367.88;10580164;28;20667;-70
2023/09/02 17:09:17;;;;;;;2.58;1.67;;;;;;;-145.68;78.22;73405.84;10578549;28;20206;-69
2023/09/02 17:14:18;;;;;;;1.60;1.50;;;;;;;-145.68;80.30;73401.84;10579781;28;20213;-69
2023/09/02 17:19:18;;;;;;;2.00;1.85;;;;;;;-145.68;82.99;73429.84;10579654;28;20226;-69
2023/09/02 17:24:19;;;;;;;2.88;2.00;;;;;;;-145.68;85.26;73439.84;10579379;28;20209;-69
2023/09/02 17:29:19;;;;;;;2.08;1.85;;;;;;;-145.68;90.54;73511.78;10579441;28;20734;-68
2023/09/02 17:34:20;;;;;;;1.77;1.60;;;;;;;-145.68;100.00;73595.75;10562111;28;20290;-67
2023/09/02 17:39:20;;;;;;;1.80;1.70;;;;;;;-145.68;100.00;73597.75;10536165;28;20205;-68
2023/09/02 17:44:20;;;;;;;7.07;2.30;;;;;;;-145.68;100.00;73733.66;10537762;28;20290;-67
2023/09/02 17:49:21;;;;;;;5.82;2.55;;;;;;;-145.68;100.00;73807.63;10536451;28;20643;-67
2023/09/02 17:54:22;;;;;;;2.30;2.10;;;;;;;-145.68;100.00;73857.59;10523607;28;20606;-68
2023/09/02 17:59:22;;;;;;;2.75;1.92;;;;;;;-145.68;100.00;73843.59;10538385;28;20191;-68
2023/09/02 18:04:23;;;;;;;2.50;2.20;;;;;;;-145.68;100.00;73857.59;10538264;28;20238;-68
2023/09/02 18:09:23;;;;;;;2.97;2.45;;;;;;;-145.68;100.00;73915.56;10563643;28;20213;-68
2023/09/02 18:14:23;;;;;;;4.07;3.38;;;;;;;-145.68;100.00;73993.53;10563557;28;20213;-68
2023/09/02 18:19:24;;;;;;;27.77;19.17;;;;;;;-145.68;100.00;73997.53;10514643;28;20176;-68
2023/09/02 18:24:24;;;;;;;2.83;2.63;;;;;;;-145.68;100.00;73993.53;10513934;28;20206;-67
2023/09/02 18:29:25;;;;;;;4.30;2.40;;;;;;;-145.68;100.00;74017.50;10514966;28;20211;-68
2023/09/02 18:34:25;;;;;;;3.40;2.85;;;;;;;-145.68;100.00;74037.50;10513288;28;20213;-68
2023/09/02 18:39:26;;;;;;;6.70;3.10;;;;;;;-145.68;100.00;74055.50;10536611;28;20185;-68
2023/09/02 18:44:28;;;;;;;3.53;3.17;;;;;;;-145.68;100.00;74081.47;10538540;28;20206;-68
2023/09/02 18:49:29;;;;;;;4.15;3.72;;;;;;;-145.68;100.00;74095.47;10575679;28;20214;-69
2023/09/02 18:54:29;;;;;;;4.68;4.25;;;;;;;-145.68;100.00;74099.47;10575424;28;20768;-69
2023/09/02 18:59:29;;;;;;;6.10;4.75;;;;;;;-145.68;100.00;74117.47;10575344;28;20186;-69
2023/09/02 19:04:30;;;;;;;7.28;4.38;;;;;;;-145.68;100.00;74111.47;10574823;28;20257;-69
2023/09/02 19:09:30;;;;;;;6.30;4.90;;;;;;;-145.68;100.00;74119.47;10574949;28;20218;-68
2023/09/02 19:14:31;;;;;;;4.80;3.97;;;;;;;-145.68;100.00;74105.47;10574873;28;20214;-69
2023/09/02 19:19:31;;;;;;;4.50;4.10;;;;;;;-145.68;100.00;74103.47;10574743;28;20871;-68
2023/09/02 19:24:32;;;;;;;4.22;3.83;;;;;;;-145.68;100.00;74107.47;10563444;28;20242;-68
2023/09/02 19:29:32;;;;;;;5.80;3.67;;;;;;;-145.68;100.00;74099.47;10516850;28;20206;-68
2023/09/02 19:34:32;;;;;;;4.78;3.72;;;;;;;-145.68;100.00;74109.47;10534104;28;20245;-68
2023/09/02 19:39:34;;;;;;;3.75;2.95;;;;;;;-145.68;100.00;74101.47;10534843;28;20649;-69
2023/09/02 19:44:35;;;;;;;3.53;3.22;;;;;;;-145.68;100.00;74107.47;10562105;28;20284;-69
2023/09/02 19:49:35;;;;;;;5.30;3.80;;;;;;;-145.68;100.00;74109.47;10573856;28;20206;-69
2023/09/02 19:54:35;;;;;;;3.95;3.55;;;;;;;-145.68;100.00;74123.47;10573698;28;20202;-69
2023/09/02 19:59:36;;;;;;;4.13;3.70;;;;;;;-145.68;100.00;74123.47;10573914;28;20651;-70
2023/09/02 20:04:36;;;;;;;4.43;2.95;;;;;;;-145.68;100.00;74121.47;10568354;22;20321;-66
2023/09/02 20:09:37;;;;;;;3.90;3.50;;;;;;;-145.68;100.00;74129.47;10484276;28;20295;-67
2023/09/02 20:14:37;;;;;;;4.00;3.35;;;;;;;-145.68;100.00;74135.47;10489419;28;20199;-67
2023/09/02 20:19:38;;;;;;;3.97;3.47;;;;;;;-145.68;100.00;74137.47;10490820;28;20282;-67
2023/09/02 20:24:38;;;;;;;3.95;3.55;;;;;;;-145.68;100.00;74153.47;10507629;28;20574;-66
2023/09/02 20:29:38;;;;;;;4.18;3.88;;;;;;;-145.68;100.00;74159.44;10531011;28;20214;-66
2023/09/02 20:34:39;;;;;;;5.72;4.20;;;;;;;-145.68;100.00;74179.44;10530735;28;20309;-67
2023/09/02 20:39:40;;;;;;;8.30;4.45;;;;;;;-145.68;100.00;74183.44;10530103;28;20230;-67
2023/09/02 20:44:41;;;;;;;6.75;4.15;;;;;;;-145.68;100.00;74201.44;10533585;28;20222;-67
2023/09/02 20:49:44;;;;;;;6.72;4.28;;;;;;;-145.68;100.00;74205.44;10528245;28;20619;-67
2023/09/02 20:54:44;;;;;;;5.93;4.60;;;;;;;-145.68;100.00;74209.44;10510523;28;20776;-66
2023/09/02 20:59:44;;;;;;;4.28;3.78;;;;;;;-145.68;100.00;74231.41;10537482;28;20182;-67
2023/09/02 21:04:46;;;;;;;4.53;3.83;;;;;;;-145.68;100.00;74231.41;10536585;28;20738;-66
2023/09/02 21:09:47;;;;;;;4.78;3.92;;;;;;;-145.68;100.00;74251.41;10537239;28;20211;-67
2023/09/02 21:14:50;;;;;;;4.10;3.70;;;;;;;-145.68;100.00;74257.41;10536543;28;20217;-67
2023/09/02 21:19:50;;;;;;;4.55;4.10;;;;;;;-145.68;100.00;74277.41;10536911;28;20556;-67
2023/09/02 21:24:51;;;;;;;4.22;3.78;;;;;;;-145.68;100.00;74267.41;10536439;28;20212;-67
2023/09/02 21:29:51;;;;;;;4.43;3.78;;;;;;;-145.68;100.00;74289.41;10536113;28;20264;-66
2023/09/02 21:34:52;;;;;;;4.13;3.47;;;;;;;-145.68;100.00;74291.41;10536347;28;20810;-67
2023/09/02 21:39:52;;;;;;;5.25;4.70;;;;;;;-145.68;100.00;74309.38;10537720;28;20213;-67
2023/09/02 21:44:53;;;;;;;4.13;3.72;;;;;;;-145.68;100.00;74315.38;10536863;28;20214;-67
2023/09/02 21:49:55;;;;;;;4.70;4.20;;;;;;;-145.68;100.00;74331.38;10535951;28;20214;-66
2023/09/02 21:54:55;;;;;;;5.88;4.10;;;;;;;-145.68;100.00;74341.38;10534655;28;20218;-67
2023/09/02 21:59:55;;;;;;;6.95;4.13;;;;;;;-145.68;100.00;74349.38;10535501;28;20183;-67
2023/09/02 22:04:56;;;;;;;6.50;4.05;;;;;;;-145.68;100.00;74357.38;10534585;28;20268;-66
2023/09/02 22:09:56;;;;;;;5.05;4.03;;;;;;;-145.68;100.00;74375.38;10535096;28;20328;-67
2023/09/02 22:14:57;;;;;;;6.40;4.10;;;;;;;-145.68;100.00;74387.34;10534463;28;20788;-67
2023/09/02 22:19:57;;;;;;;4.45;4.05;;;;;;;-145.68;100.00;74393.34;10534531;28;21494;-67
2023/09/02 22:24:57;;;;;;;4.40;3.88;;;;;;;-145.68;100.00;74403.34;10534326;28;20348;-66
2023/09/02 22:29:58;;;;;;;3.97;3.67;;;;;;;-145.68;100.00;74399.34;10533982;28;20340;-67
2023/09/02 22:34:58;;;;;;;4.97;4.30;;;;;;;-145.68;100.00;74417.34;10533634;28;20208;-67
2023/09/02 22:39:59;;;;;;;4.40;3.72;;;;;;;-145.68;100.00;74421.34;10533760;28;20185;-66